sensor_id;sensor_type;location;lat;lon;timestamp;P1;durP1;ratioP1;P2;durP2;ratioP2
14021;SDS011;7086;48.116;11.580;2022-10-03T00:00:10;1.48;;;1.48;;
14021;SDS011;7086;48.116;11.580;2022-10-03T00:06:03;2.40;;;2.20;;
14021;SDS011;7086;48.116;11.580;2022-10-03T00:08:58;2.00;;;1.90;;
14021;SDS011;7086;48.116;11.580;2022-10-03T00:11:42;2.65;;;2.42;;
14021;SDS011;7086;48.116;11.580;2022-10-03T00:14:29;2.60;;;2.50;;
14021;SDS011;7086;48.116;11.580;2022-10-03T00:17:11;2.00;;;1.90;;
14021;SDS011;7086;48.116;11.580;2022-10-03T00:19:49;2.30;;;2.20;;
14021;SDS011;7086;48.116;11.580;2022-10-03T00:22:32;2.50;;;2.40;;
14021;SDS011;7086;48.116;11.580;2022-10-03T00:25:24;4.22;;;2.33;;
14021;SDS011;7086;48.116;11.580;2022-10-03T00:28:17;2.92;;;2.72;;
14021;SDS011;7086;48.116;11.580;2022-10-03T00:31:08;1.95;;;1.85;;
14021;SDS011;7086;48.116;11.580;2022-10-03T00:33:47;2.20;;;2.10;;
14021;SDS011;7086;48.116;11.580;2022-10-03T00:36:31;2.05;;;1.95;;
14021;SDS011;7086;48.116;11.580;2022-10-03T00:39:17;2.17;;;2.08;;
14021;SDS011;7086;48.116;11.580;2022-10-03T00:52:50;2.35;;;2.20;;
14021;SDS011;7086;48.116;11.580;2022-10-03T00:55:39;2.47;;;2.28;;
14021;SDS011;7086;48.116;11.580;2022-10-03T00:58:32;2.95;;;2.75;;
14021;SDS011;7086;48.116;11.580;2022-10-03T01:01:38;3.17;;;2.97;;
14021;SDS011;7086;48.116;11.580;2022-10-03T01:07:23;2.97;;;2.78;;
14021;SDS011;7086;48.116;11.580;2022-10-03T01:10:21;2.53;;;2.33;;
14021;SDS011;7086;48.116;11.580;2022-10-03T01:13:04;3.05;;;2.85;;
14021;SDS011;7086;48.116;11.580;2022-10-03T01:15:53;3.45;;;2.70;;
14021;SDS011;7086;48.116;11.580;2022-10-03T01:18:38;3.67;;;2.90;;
14021;SDS011;7086;48.116;11.580;2022-10-03T01:21:17;3.00;;;2.80;;
14021;SDS011;7086;48.116;11.580;2022-10-03T01:27:25;3.15;;;2.95;;
14021;SDS011;7086;48.116;11.580;2022-10-03T01:30:24;3.13;;;2.90;;
14021;SDS011;7086;48.116;11.580;2022-10-03T01:33:06;3.50;;;3.28;;
14021;SDS011;7086;48.116;11.580;2022-10-03T01:35:44;5.18;;;2.83;;
14021;SDS011;7086;48.116;11.580;2022-10-03T01:38:21;3.05;;;2.85;;
14021;SDS011;7086;48.116;11.580;2022-10-03T01:41:01;3.10;;;2.90;;
14021;SDS011;7086;48.116;11.580;2022-10-03T01:43:40;3.25;;;3.05;;
14021;SDS011;7086;48.116;11.580;2022-10-03T01:46:19;2.97;;;2.78;;
14021;SDS011;7086;48.116;11.580;2022-10-03T01:48:54;3.20;;;2.85;;
14021;SDS011;7086;48.116;11.580;2022-10-03T01:51:40;3.70;;;3.50;;
14021;SDS011;7086;48.116;11.580;2022-10-03T01:54:19;3.83;;;3.53;;
14021;SDS011;7086;48.116;11.580;2022-10-03T01:57:00;3.38;;;3.08;;
14021;SDS011;7086;48.116;11.580;2022-10-03T01:59:41;4.25;;;3.85;;
14021;SDS011;7086;48.116;11.580;2022-10-03T02:02:19;3.08;;;2.88;;
14021;SDS011;7086;48.116;11.580;2022-10-03T02:04:58;3.97;;;3.67;;
14021;SDS011;7086;48.116;11.580;2022-10-03T02:07:39;4.22;;;3.83;;
14021;SDS011;7086;48.116;11.580;2022-10-03T02:10:16;4.45;;;4.15;;
14021;SDS011;7086;48.116;11.580;2022-10-03T02:13:00;4.72;;;3.75;;
14021;SDS011;7086;48.116;11.580;2022-10-03T02:15:47;4.00;;;3.75;;
14021;SDS011;7086;48.116;11.580;2022-10-03T02:21:44;3.90;;;3.63;;
14021;SDS011;7086;48.116;11.580;2022-10-03T02:24:37;3.85;;;3.65;;
14021;SDS011;7086;48.116;11.580;2022-10-03T02:27:30;9.52;;;4.05;;
14021;SDS011;7086;48.116;11.580;2022-10-03T03:02:16;4.15;;;3.85;;
14021;SDS011;7086;48.116;11.580;2022-10-03T03:05:33;4.65;;;4.22;;
14021;SDS011;7086;48.116;11.580;2022-10-03T03:12:30;4.25;;;3.95;;
14021;SDS011;7086;48.116;11.580;2022-10-03T03:15:45;4.55;;;4.18;;
14021;SDS011;7086;48.116;11.580;2022-10-03T03:19:15;8.82;;;4.35;;
14021;SDS011;7086;48.116;11.580;2022-10-03T03:22:27;4.95;;;4.45;;
14021;SDS011;7086;48.116;11.580;2022-10-03T03:29:06;5.55;;;4.50;;
14021;SDS011;7086;48.116;11.580;2022-10-03T03:31:49;5.07;;;4.57;;
14021;SDS011;7086;48.116;11.580;2022-10-03T03:34:30;5.53;;;5.03;;
14021;SDS011;7086;48.116;11.580;2022-10-03T03:37:10;6.13;;;3.83;;
14021;SDS011;7086;48.116;11.580;2022-10-03T03:39:56;4.97;;;4.57;;
14021;SDS011;7086;48.116;11.580;2022-10-03T03:49:12;5.82;;;4.03;;
14021;SDS011;7086;48.116;11.580;2022-10-03T03:52:03;4.03;;;3.70;;
14021;SDS011;7086;48.116;11.580;2022-10-03T03:55:13;4.95;;;4.55;;
14021;SDS011;7086;48.116;11.580;2022-10-03T03:58:22;4.80;;;4.32;;
14021;SDS011;7086;48.116;11.580;2022-10-03T04:01:25;4.60;;;4.30;;
14021;SDS011;7086;48.116;11.580;2022-10-03T04:05:01;5.88;;;4.65;;
14021;SDS011;7086;48.116;11.580;2022-10-03T04:07:52;4.95;;;4.38;;
14021;SDS011;7086;48.116;11.580;2022-10-03T04:10:49;5.47;;;4.97;;
14021;SDS011;7086;48.116;11.580;2022-10-03T04:13:45;5.55;;;4.97;;
14021;SDS011;7086;48.116;11.580;2022-10-03T04:16:43;5.43;;;4.93;;
14021;SDS011;7086;48.116;11.580;2022-10-03T04:20:05;5.28;;;4.65;;
14021;SDS011;7086;48.116;11.580;2022-10-03T04:26:33;7.15;;;4.97;;
14021;SDS011;7086;48.116;11.580;2022-10-03T04:32:52;5.07;;;4.25;;
14021;SDS011;7086;48.116;11.580;2022-10-03T04:36:04;4.38;;;4.07;;
14021;SDS011;7086;48.116;11.580;2022-10-03T04:39:08;5.55;;;4.90;;
14021;SDS011;7086;48.116;11.580;2022-10-03T04:41:59;6.07;;;4.68;;
14021;SDS011;7086;48.116;11.580;2022-10-03T04:44:43;4.50;;;4.18;;
14021;SDS011;7086;48.116;11.580;2022-10-03T04:47:39;5.50;;;5.10;;
14021;SDS011;7086;48.116;11.580;2022-10-03T04:50:21;5.18;;;4.82;;
14021;SDS011;7086;48.116;11.580;2022-10-03T04:56:23;6.03;;;4.70;;
14021;SDS011;7086;48.116;11.580;2022-10-03T04:59:18;4.65;;;4.05;;
14021;SDS011;7086;48.116;11.580;2022-10-03T05:02:29;4.05;;;3.65;;
14021;SDS011;7086;48.116;11.580;2022-10-03T05:05:26;6.03;;;4.13;;
14021;SDS011;7086;48.116;11.580;2022-10-03T05:11:32;5.18;;;4.78;;
14021;SDS011;7086;48.116;11.580;2022-10-03T05:14:20;4.38;;;4.07;;
14021;SDS011;7086;48.116;11.580;2022-10-03T05:17:13;5.25;;;4.30;;
14021;SDS011;7086;48.116;11.580;2022-10-03T05:19:52;5.25;;;4.57;;
14021;SDS011;7086;48.116;11.580;2022-10-03T05:22:57;5.88;;;5.28;;
14021;SDS011;7086;48.116;11.580;2022-10-03T05:43:06;5.18;;;4.75;;
14021;SDS011;7086;48.116;11.580;2022-10-03T05:45:56;4.13;;;3.83;;
14021;SDS011;7086;48.116;11.580;2022-10-03T05:48:46;5.20;;;4.70;;
14021;SDS011;7086;48.116;11.580;2022-10-03T05:51:28;5.05;;;4.68;;
14021;SDS011;7086;48.116;11.580;2022-10-03T05:57:47;4.70;;;4.22;;
14021;SDS011;7086;48.116;11.580;2022-10-03T20:22:20;8.50;;;6.47;;
14021;SDS011;7086;48.116;11.580;2022-10-03T20:28:16;17.27;;;12.98;;
14021;SDS011;7086;48.116;11.580;2022-10-03T20:31:34;9.43;;;7.20;;
14021;SDS011;7086;48.116;11.580;2022-10-03T20:41:59;8.73;;;6.30;;
14021;SDS011;7086;48.116;11.580;2022-10-03T20:44:59;8.95;;;5.88;;
14021;SDS011;7086;48.116;11.580;2022-10-03T20:47:59;7.60;;;5.50;;
14021;SDS011;7086;48.116;11.580;2022-10-03T20:50:34;6.93;;;5.90;;
14021;SDS011;7086;48.116;11.580;2022-10-03T20:53:24;8.75;;;7.00;;
14021;SDS011;7086;48.116;11.580;2022-10-03T20:55:56;11.10;;;7.45;;
14021;SDS011;7086;48.116;11.580;2022-10-03T21:01:37;9.02;;;6.25;;
14021;SDS011;7086;48.116;11.580;2022-10-03T21:04:37;9.80;;;6.85;;
14021;SDS011;7086;48.116;11.580;2022-10-03T21:07:37;8.90;;;5.93;;
14021;SDS011;7086;48.116;11.580;2022-10-03T21:24:39;7.03;;;5.88;;
14021;SDS011;7086;48.116;11.580;2022-10-03T21:27:19;10.38;;;5.68;;
14021;SDS011;7086;48.116;11.580;2022-10-03T21:30:17;7.95;;;5.25;;
14021;SDS011;7086;48.116;11.580;2022-10-03T21:32:56;5.65;;;4.75;;
14021;SDS011;7086;48.116;11.580;2022-10-03T21:35:49;6.70;;;4.75;;
14021;SDS011;7086;48.116;11.580;2022-10-03T21:38:25;9.63;;;4.47;;
14021;SDS011;7086;48.116;11.580;2022-10-03T21:41:11;7.05;;;4.90;;
14021;SDS011;7086;48.116;11.580;2022-10-03T21:43:58;6.20;;;5.20;;
14021;SDS011;7086;48.116;11.580;2022-10-03T21:46:33;7.68;;;4.18;;
14021;SDS011;7086;48.116;11.580;2022-10-03T21:49:21;6.05;;;4.88;;
14021;SDS011;7086;48.116;11.580;2022-10-03T21:52:21;8.40;;;4.57;;
14021;SDS011;7086;48.116;11.580;2022-10-03T21:59:07;5.75;;;4.18;;
14021;SDS011;7086;48.116;11.580;2022-10-03T22:02:02;6.22;;;4.63;;
14021;SDS011;7086;48.116;11.580;2022-10-03T22:04:53;4.57;;;4.00;;
14021;SDS011;7086;48.116;11.580;2022-10-03T22:07:32;4.57;;;4.15;;
14021;SDS011;7086;48.116;11.580;2022-10-03T22:10:15;4.97;;;4.20;;
14021;SDS011;7086;48.116;11.580;2022-10-03T22:13:04;5.55;;;4.18;;
14021;SDS011;7086;48.116;11.580;2022-10-03T22:15:57;8.95;;;4.53;;
14021;SDS011;7086;48.116;11.580;2022-10-03T22:18:51;5.95;;;3.58;;
14021;SDS011;7086;48.116;11.580;2022-10-03T22:21:54;5.80;;;4.00;;
14021;SDS011;7086;48.116;11.580;2022-10-03T22:25:09;5.93;;;4.53;;
14021;SDS011;7086;48.116;11.580;2022-10-03T22:27:55;3.60;;;3.40;;
14021;SDS011;7086;48.116;11.580;2022-10-03T22:30:48;6.10;;;4.22;;
14021;SDS011;7086;48.116;11.580;2022-10-03T22:33:58;3.90;;;3.60;;
14021;SDS011;7086;48.116;11.580;2022-10-03T22:36:48;4.32;;;3.65;;
14021;SDS011;7086;48.116;11.580;2022-10-03T22:39:30;4.55;;;3.40;;
14021;SDS011;7086;48.116;11.580;2022-10-03T22:42:05;4.93;;;3.90;;
14021;SDS011;7086;48.116;11.580;2022-10-03T22:44:48;5.70;;;4.50;;
14021;SDS011;7086;48.116;11.580;2022-10-03T22:47:20;5.18;;;4.68;;
14021;SDS011;7086;48.116;11.580;2022-10-03T22:49:56;5.97;;;4.15;;
14021;SDS011;7086;48.116;11.580;2022-10-03T22:52:30;4.75;;;4.25;;
14021;SDS011;7086;48.116;11.580;2022-10-03T22:55:02;5.05;;;4.38;;
14021;SDS011;7086;48.116;11.580;2022-10-03T22:57:35;5.38;;;4.88;;
14021;SDS011;7086;48.116;11.580;2022-10-03T23:00:11;5.40;;;3.90;;
14021;SDS011;7086;48.116;11.580;2022-10-03T23:02:45;4.60;;;4.13;;
14021;SDS011;7086;48.116;11.580;2022-10-03T23:05:27;3.80;;;3.50;;
14021;SDS011;7086;48.116;11.580;2022-10-03T23:08:30;4.57;;;4.18;;
14021;SDS011;7086;48.116;11.580;2022-10-03T23:11:13;4.60;;;4.20;;
14021;SDS011;7086;48.116;11.580;2022-10-03T23:13:52;5.05;;;4.63;;
14021;SDS011;7086;48.116;11.580;2022-10-03T23:19:39;4.20;;;3.70;;
14021;SDS011;7086;48.116;11.580;2022-10-03T23:22:38;4.82;;;4.43;;
14021;SDS011;7086;48.116;11.580;2022-10-03T23:25:15;3.92;;;3.63;;
14021;SDS011;7086;48.116;11.580;2022-10-03T23:27:54;5.05;;;3.83;;
14021;SDS011;7086;48.116;11.580;2022-10-03T23:30:46;4.32;;;3.92;;
14021;SDS011;7086;48.116;11.580;2022-10-03T23:36:21;4.32;;;3.92;;
14021;SDS011;7086;48.116;11.580;2022-10-03T23:38:57;6.10;;;4.07;;
14021;SDS011;7086;48.116;11.580;2022-10-03T23:41:54;4.05;;;3.70;;
14021;SDS011;7086;48.116;11.580;2022-10-03T23:44:39;3.78;;;3.47;;
14021;SDS011;7086;48.116;11.580;2022-10-03T23:47:16;4.70;;;4.00;;
14021;SDS011;7086;48.116;11.580;2022-10-03T23:49:46;3.15;;;2.92;;
14021;SDS011;7086;48.116;11.580;2022-10-03T23:52:19;5.45;;;2.95;;
14021;SDS011;7086;48.116;11.580;2022-10-03T23:54:53;3.92;;;3.53;;
14021;SDS011;7086;48.116;11.580;2022-10-03T23:57:29;3.47;;;3.28;;
